Airfield :
LOGIN :

Register | Disclaimer

   EN    FR    IT 

 










Legend :    VFR   Marginal VFR   IFR   Intensive IFR   Very Intensive IFR
Visi :
Ceiling :
>= 8 km
>= 3000ft
5 to 8 km
1000 to 3000 ft
1500m to 5 km
500 to 1000 ft
800 to 1500m
200 to 500 ft
< 800m
< 200 ft
Symbols :   Thunderstorms  Fog  Heavy snow  Heavy precipitations  Wind > 20 kt
SIGMETs :     Misc.  Thunderstorms  Icing  Turbulence  Mountain Waves  Volcanic Ashes







- Airport Elevation : 1906 ft
- IATA code : INN


LOWI - Innsbruck

CURRENT METAR :
  • 242150Z 20003KT 160V220 9999 FEW025 BKN065 13/12 Q1020 NOSIG

EXPIRED METARs :
  • 242120Z 32003KT 290V360 9999 -SHRA FEW025 SCT050 BKN070 14/12 Q1020 RERA NOSIG
  • 242050Z 27006KT 9999 SHRA FEW025 SCT045 BKN055 14/12 Q1020 TEMPO -SHRA
  • 242020Z 27006KT 9999 SHRA FEW035 BKN050 BKN060 14/12 Q1020 TEMPO -SHRA
  • 241950Z 26009KT 9999 SHRA FEW035 BKN050 BKN060 14/12 Q1019 TEMPO -SHRA
  • 241920Z 32006KT 9999 -SHRA FEW035 BKN050 BKN060 15/11 Q1019 TEMPO SHRA

TAF TAF LOWI
Valid from the 24 at 18:00 until the 25 at 18:00 UTC


241715Z 2418/2518 07007KT 9999 FEW050 BKN090 TX18/2514Z TN13/2503Z
TEMPO 2418/2420 31015G25KT SHRA SCT040TCU BKN070
TEMPO 2420/2508 30008KT RA SCT020 BKN040
No reported NOTAMs for that airfield.



MET'MAP, your aeronautical weather chart ! - Copyright ORBIFLY December 2007 - Disclaimer

ORBIFLY MET'MAP TEAM :

Programming & Development : Alexandra Zaïnal
Concept & Development : Baudouin d'Aumeries
Co-Development & Prog : Marc-Olivier Méhu
Technical & hardware support : Manuel Goepfert

Contact : metmap@orbifly.com




SOURCES & CREDITS :

   NOAA